Time;durP1;ratioP1;P1;durP2;ratioP2;P2;SDS_P1;SDS_P2;PMS_P1;PMS_P2;Temp;Humidity;BMP_temperature;BMP_pressure;BME280_temperature;BME280_humidity;BME280_pressure;Samples;Min_cycle;Max_cycle;Signal;HPM_P1;HPM_P2
2021/08/06 00:01:40;;;;;;;17.70;11.33;;;;;;;19.68;78.48;100239.05;1747033;82;21453;-75
2021/08/06 00:04:08;;;;;;;20.27;11.97;;;;;;;19.66;78.65;100239.70;1746932;80;20991;-75
2021/08/06 00:06:34;;;;;;;16.52;10.72;;;;;;;19.63;78.69;100248.84;1747045;80;20904;-75
2021/08/06 00:09:03;;;;;;;12.93;10.28;;;;;;;19.63;78.70;100253.30;1747029;82;20921;-75
2021/08/06 00:11:32;;;;;;;17.98;11.30;;;;;;;19.61;78.93;100263.30;1747033;82;22068;-74
2021/08/06 00:14:00;;;;;;;17.77;10.98;;;;;;;19.60;78.95;100276.25;1747125;82;20971;-76
2021/08/06 00:16:28;;;;;;;14.87;10.45;;;;;;;19.59;78.79;100290.55;1746937;80;21436;-74
2021/08/06 00:18:56;;;;;;;16.62;11.53;;;;;;;19.56;78.66;100286.36;1746873;80;20913;-74
2021/08/06 00:21:23;;;;;;;20.60;11.48;;;;;;;19.54;78.69;100284.38;1747064;80;20845;-75
2021/08/06 00:23:50;;;;;;;14.78;10.03;;;;;;;19.52;78.71;100285.03;1747349;80;21490;-75
2021/08/06 00:26:17;;;;;;;12.82;10.85;;;;;;;19.50;78.89;100289.67;1746989;80;20916;-75
2021/08/06 00:28:44;;;;;;;14.65;11.40;;;;;;;19.48;79.02;100295.64;1747310;82;20885;-75
2021/08/06 00:31:11;;;;;;;16.77;11.95;;;;;;;19.46;78.92;100292.30;1747013;82;20956;-74
2021/08/06 00:33:38;;;;;;;14.83;11.18;;;;;;;19.43;78.95;100285.48;1747188;80;20948;-74
2021/08/06 00:36:06;;;;;;;18.20;12.98;;;;;;;19.41;78.91;100282.65;1762653;81;21154;-75
2021/08/06 00:38:33;;;;;;;16.48;10.40;;;;;;;19.39;79.03;100286.78;1763523;81;20905;-74
2021/08/06 00:41:01;;;;;;;16.65;10.75;;;;;;;19.38;79.29;100274.47;1763253;81;20898;-75
2021/08/06 00:43:30;;;;;;;16.48;11.35;;;;;;;19.39;79.27;100281.47;1763513;81;21008;-74
2021/08/06 00:45:59;;;;;;;13.93;9.15;;;;;;;19.42;79.16;100282.97;1763313;81;20830;-75
2021/08/06 00:48:27;;;;;;;16.17;8.63;;;;;;;19.42;78.84;100278.48;1763282;81;21162;-76
2021/08/06 00:50:56;;;;;;;15.58;9.40;;;;;;;19.48;77.24;100276.20;1738197;81;20960;-74
2021/08/06 00:53:24;;;;;;;14.47;8.73;;;;;;;19.57;77.00;100264.10;1763280;81;20862;-73
2021/08/06 00:55:52;;;;;;;14.63;10.53;;;;;;;19.67;76.27;100253.33;1763228;81;20972;-74
2021/08/06 00:58:21;;;;;;;17.25;10.32;;;;;;;19.78;76.91;100254.91;1763418;81;20946;-74
2021/08/06 01:00:48;;;;;;;16.05;11.90;;;;;;;19.83;76.02;100252.58;1763498;81;22134;-74
2021/08/06 01:03:44;;;;;;;14.73;10.82;;;;;;;19.87;75.65;100258.75;1762973;81;20905;-76
2021/08/06 01:06:39;;;;;;;15.03;10.58;;;;;;;19.92;75.96;100255.63;1763472;81;20965;-76
2021/08/06 01:09:20;;;;;;;18.92;11.33;;;;;;;19.92;76.01;100254.77;1763390;81;20866;-75
2021/08/06 01:11:52;;;;;;;14.20;11.05;;;;;;;19.86;76.18;100251.77;1763555;81;20893;-76
2021/08/06 01:14:23;;;;;;;13.95;10.85;;;;;;;19.82;76.31;100251.75;1763269;81;21078;-76
2021/08/06 01:16:50;;;;;;;16.90;10.90;;;;;;;19.78;76.46;100247.74;1763472;81;20968;-75
2021/08/06 01:19:32;;;;;;;15.88;10.82;;;;;;;19.72;76.41;100247.08;1761829;81;21418;-76
2021/08/06 01:22:22;;;;;;;18.20;11.05;;;;;;;19.64;76.65;100245.67;1763450;81;20989;-76
2021/08/06 01:24:58;;;;;;;12.05;10.48;;;;;;;19.58;76.91;100250.30;1763265;81;20901;-76
2021/08/06 01:27:25;;;;;;;14.30;10.35;;;;;;;19.53;77.31;100249.45;1762349;81;21907;-76
2021/08/06 01:29:53;;;;;;;16.35;10.32;;;;;;;19.49;77.42;100245.44;1763267;81;20881;-75
2021/08/06 01:32:20;;;;;;;24.05;10.35;;;;;;;19.45;77.35;100250.73;1737313;81;21545;-76
2021/08/06 01:34:47;;;;;;;16.95;10.93;;;;;;;19.41;77.56;100262.70;1758688;80;20861;-76
2021/08/06 01:37:13;;;;;;;16.93;11.33;;;;;;;19.37;77.75;100258.69;1746901;82;21386;-75
2021/08/06 01:39:42;;;;;;;13.48;10.58;;;;;;;19.34;77.86;100257.19;1746799;82;21525;-75
2021/08/06 01:42:26;;;;;;;14.05;11.50;;;;;;;19.32;78.13;100247.67;1747146;82;21401;-76
2021/08/06 01:44:55;;;;;;;13.70;10.20;;;;;;;19.30;78.07;100247.85;1737096;82;20952;-76
2021/08/06 01:47:38;;;;;;;17.92;11.30;;;;;;;19.28;78.09;100233.05;1746760;82;20980;-75
2021/08/06 01:50:10;;;;;;;15.28;11.05;;;;;;;19.27;77.95;100233.52;1746909;80;21370;-75
2021/08/06 01:53:00;;;;;;;13.72;10.45;;;;;;;19.25;78.09;100221.73;1746912;80;21085;-75
2021/08/06 01:55:41;;;;;;;13.40;10.85;;;;;;;19.27;78.26;100240.17;1746591;80;20991;-75
2021/08/06 01:58:10;;;;;;;14.90;9.83;;;;;;;19.29;78.18;100233.37;1746853;82;20908;-74
2021/08/06 02:00:40;;;;;;;17.80;11.00;;;;;;;19.27;78.04;100220.23;1746981;82;20916;-74
2021/08/06 02:03:07;;;;;;;14.38;10.48;;;;;;;19.26;78.04;100215.92;1747139;80;20927;-75
2021/08/06 02:05:34;;;;;;;16.20;13.70;;;;;;;19.26;78.17;100218.08;1725906;82;21508;-74
2021/08/06 02:08:05;;;;;;;16.05;12.13;;;;;;;19.24;78.14;100229.36;1746532;82;21287;-74
2021/08/06 02:10:33;;;;;;;15.88;10.68;;;;;;;19.25;78.33;100215.56;1726281;81;20857;-74
2021/08/06 02:13:03;;;;;;;20.40;12.13;;;;;;;19.24;78.26;100214.73;1746959;82;21397;-74
2021/08/06 02:15:31;;;;;;;16.42;11.85;;;;;;;19.27;78.27;100221.56;1746941;81;20967;-73
2021/08/06 02:17:58;;;;;;;13.35;10.60;;;;;;;19.26;78.04;100215.92;1747210;82;21106;-74
2021/08/06 02:20:30;;;;;;;17.02;10.90;;;;;;;19.27;77.89;100220.23;1746022;82;20930;-73
2021/08/06 02:22:58;;;;;;;14.85;11.78;;;;;;;19.26;77.85;100215.92;1726105;81;20968;-75
2021/08/06 02:25:25;;;;;;;14.73;11.57;;;;;;;19.24;77.77;100216.06;1746925;80;20904;-75
2021/08/06 02:27:53;;;;;;;13.75;10.78;;;;;;;19.22;77.85;100214.06;1746881;80;20920;-75
2021/08/06 02:30:21;;;;;;;14.05;11.20;;;;;;;19.20;77.93;100220.03;1746839;80;21513;-75
2021/08/06 02:32:50;;;;;;;14.93;10.43;;;;;;;19.19;78.00;100221.53;1726303;80;20956;-76
2021/08/06 02:35:17;;;;;;;16.57;11.88;;;;;;;19.17;78.17;100215.04;1747704;80;20861;-75
2021/08/06 02:37:46;;;;;;;16.27;12.58;;;;;;;19.16;78.25;100220.00;1722408;82;20905;-75
2021/08/06 02:40:15;;;;;;;16.85;13.05;;;;;;;19.16;77.83;100225.81;1749676;82;21480;-75
2021/08/06 02:42:44;;;;;;;15.50;12.13;;;;;;;19.19;78.23;100219.70;1749618;82;21298;-76
2021/08/06 02:45:11;;;;;;;14.28;11.75;;;;;;;19.21;78.24;100220.88;1749452;80;20978;-76
2021/08/06 02:47:38;;;;;;;15.80;11.35;;;;;;;19.20;78.04;100216.04;1749562;82;21461;-76
2021/08/06 02:50:06;;;;;;;18.07;12.25;;;;;;;19.21;77.85;100208.42;1749474;82;20888;-75
2021/08/06 02:52:34;;;;;;;16.12;12.78;;;;;;;19.22;77.80;100211.91;1749600;81;20837;-76
2021/08/06 02:55:01;;;;;;;20.72;13.35;;;;;;;19.22;77.79;100202.60;1749585;82;21954;-75
2021/08/06 02:57:28;;;;;;;19.52;12.90;;;;;;;19.23;77.73;100204.25;1749981;80;20956;-76
2021/08/06 02:59:56;;;;;;;18.67;14.63;;;;;;;19.23;77.68;100202.92;1749968;81;20888;-75
2021/08/06 03:02:24;;;;;;;22.25;12.90;;;;;;;19.23;77.62;100210.90;1749877;82;20881;-75
2021/08/06 03:04:51;;;;;;;17.90;12.63;;;;;;;19.24;77.51;100207.27;1749765;82;20924;-75
2021/08/06 03:07:19;;;;;;;20.88;14.68;;;;;;;19.24;77.61;100200.11;1749705;81;22021;-76
2021/08/06 03:09:47;;;;;;;15.58;12.80;;;;;;;19.26;77.77;100202.63;1749577;80;20908;-75
2021/08/06 03:12:15;;;;;;;21.00;14.65;;;;;;;19.28;77.89;100210.45;1749688;82;20893;-75
2021/08/06 03:14:43;;;;;;;21.12;12.85;;;;;;;19.29;77.64;100217.42;1749621;81;20900;-75
2021/08/06 03:17:11;;;;;;;31.15;16.15;;;;;;;19.29;77.49;100216.09;1750112;82;20940;-76
2021/08/06 03:19:40;;;;;;;28.62;17.95;;;;;;;19.29;77.39;100210.27;1749828;81;20944;-75
2021/08/06 03:22:08;;;;;;;26.40;17.57;;;;;;;19.27;77.29;100204.28;1749678;81;20877;-74
2021/08/06 03:24:35;;;;;;;31.40;17.82;;;;;;;19.29;77.14;100206.28;1749599;82;20944;-75
2021/08/06 03:27:03;;;;;;;35.52;17.70;;;;;;;19.32;77.24;100207.31;1749906;80;20995;-75
2021/08/06 03:29:30;;;;;;;38.05;19.87;;;;;;;19.35;77.13;100202.17;1749739;82;20987;-75
2021/08/06 03:31:57;;;;;;;28.40;16.32;;;;;;;19.38;77.34;100211.15;1749895;80;21521;-75
2021/08/06 03:34:23;;;;;;;30.17;19.05;;;;;;;19.41;77.08;100210.34;1749662;82;20876;-75
2021/08/06 03:36:52;;;;;;;36.42;19.62;;;;;;;19.45;76.88;100215.69;1761737;81;21488;-77
2021/08/06 03:39:20;;;;;;;27.40;17.37;;;;;;;19.50;77.34;100209.89;1763263;81;20893;-76
2021/08/06 03:41:48;;;;;;;37.63;18.12;;;;;;;19.56;77.25;100208.39;1738125;81;20846;-76
2021/08/06 03:44:15;;;;;;;36.03;18.05;;;;;;;19.60;77.24;100206.58;1763579;80;21136;-76
2021/08/06 03:46:43;;;;;;;28.83;18.10;;;;;;;19.65;77.39;100204.29;1763234;80;20937;-76
2021/08/06 03:49:10;;;;;;;30.72;18.57;;;;;;;19.71;77.44;100205.48;1763290;80;20999;-78
2021/08/06 03:51:38;;;;;;;41.20;18.92;;;;;;;19.77;77.21;100203.52;1763314;81;20953;-77
2021/08/06 03:54:05;;;;;;;48.15;19.25;;;;;;;19.84;77.40;100195.72;1763421;80;20893;-80
2021/08/06 03:56:33;;;;;;;27.77;17.12;;;;;;;19.91;77.22;100202.05;1763328;81;21201;-76
2021/08/06 03:59:00;;;;;;;22.82;17.50;;;;;;;19.99;76.95;100197.26;1763526;81;20941;-76
2021/08/06 04:01:28;;;;;;;35.33;20.17;;;;;;;20.06;76.73;100193.77;1763435;81;21351;-76
2021/08/06 04:03:55;;;;;;;27.87;18.07;;;;;;;20.14;76.66;100188.94;1763670;80;20858;-75
2021/08/06 04:06:22;;;;;;;32.90;19.32;;;;;;;20.22;76.64;100194.28;1763629;81;20933;-75
2021/08/06 04:08:49;;;;;;;22.58;16.25;;;;;;;20.30;76.88;100186.81;1764009;81;21469;-75
2021/08/06 04:11:18;;;;;;;28.32;17.17;;;;;;;20.40;75.34;100181.30;1763363;80;20924;-76
2021/08/06 04:13:47;;;;;;;33.30;19.70;;;;;;;20.52;74.42;100175.98;1763303;80;20885;-78
2021/08/06 04:16:14;;;;;;;39.35;18.98;;;;;;;20.66;74.71;100181.98;1763264;81;20870;-77
2021/08/06 04:18:41;;;;;;;35.83;18.98;;;;;;;20.79;74.14;100183.31;1763510;80;20941;-77
2021/08/06 04:21:08;;;;;;;32.35;19.45;;;;;;;20.91;74.27;100183.27;1763351;81;21142;-77
2021/08/06 04:23:35;;;;;;;31.17;18.70;;;;;;;21.04;74.24;100186.24;1763709;80;20888;-77
2021/08/06 04:26:03;;;;;;;31.30;17.87;;;;;;;21.15;74.32;100190.89;1763423;80;20889;-77
2021/08/06 04:28:31;;;;;;;29.00;17.40;;;;;;;21.30;74.28;100188.66;1763314;81;20981;-76
2021/08/06 04:31:00;;;;;;;31.42;17.23;;;;;;;21.51;74.18;100184.61;1763464;80;20925;-76
2021/08/06 04:33:28;;;;;;;34.10;17.70;;;;;;;21.79;73.91;100183.63;1763710;80;21099;-77
2021/08/06 04:35:55;;;;;;;50.60;20.55;;;;;;;22.18;73.05;100192.04;1757298;81;20841;-76
2021/08/06 04:38:22;;;;;;;63.78;21.05;;;;;;;22.68;71.88;100192.52;1747056;80;20928;-77
2021/08/06 04:40:49;;;;;;;30.75;18.30;;;;;;;23.24;70.67;100190.78;1746900;82;20991;-76
2021/08/06 04:43:16;;;;;;;35.92;18.02;;;;;;;23.87;68.63;100188.48;1746965;82;20897;-76
2021/08/06 04:45:43;;;;;;;36.08;17.35;;;;;;;24.52;66.88;100179.45;1746946;82;21812;-75
2021/08/06 04:48:10;;;;;;;34.10;16.67;;;;;;;25.10;64.96;100181.91;1746890;82;20924;-77
2021/08/06 04:50:38;;;;;;;35.38;18.15;;;;;;;25.56;63.23;100173.77;1746928;80;20964;-76
2021/08/06 04:53:05;;;;;;;26.25;16.65;;;;;;;26.00;61.31;100178.66;1746991;80;20896;-77
2021/08/06 04:55:34;;;;;;;24.23;16.75;;;;;;;26.33;59.74;100168.99;1747030;82;21430;-77
2021/08/06 04:58:03;;;;;;;22.90;15.72;;;;;;;26.59;58.78;100170.36;1746911;80;21112;-76
2021/08/06 05:00:32;;;;;;;33.02;17.17;;;;;;;26.87;57.72;100168.75;1747057;82;20944;-77
2021/08/06 05:02:59;;;;;;;221.57;74.35;;;;;;;27.21;56.94;100166.84;1746948;82;20925;-77
2021/08/06 05:05:28;;;;;;;183.18;64.90;;;;;;;27.63;56.02;100160.53;1746928;82;21027;-75
2021/08/06 05:07:55;;;;;;;75.05;29.75;;;;;;;28.07;54.94;100155.33;1747172;82;20889;-74
2021/08/06 05:10:24;;;;;;;105.65;43.45;;;;;;;28.57;53.57;100154.02;1747376;82;21141;-74
2021/08/06 05:12:51;;;;;;;50.33;23.27;;;;;;;29.09;52.27;100150.48;1747109;82;21007;-75
2021/08/06 05:15:19;;;;;;;63.42;26.82;;;;;;;29.59;51.00;100141.85;1747047;82;20996;-75
2021/08/06 05:17:46;;;;;;;36.05;21.12;;;;;;;30.05;50.30;100145.79;1746950;82;20943;-75
2021/08/06 05:20:14;;;;;;;37.83;21.60;;;;;;;30.46;49.05;100138.67;1747011;81;21022;-75
2021/08/06 05:22:41;;;;;;;34.33;21.48;;;;;;;30.88;47.14;100142.13;1746995;82;21095;-76
2021/08/06 05:25:10;;;;;;;33.95;19.35;;;;;;;31.32;45.17;100138.39;1747162;80;20968;-77
2021/08/06 05:27:37;;;;;;;49.03;24.20;;;;;;;31.74;45.16;100123.75;1747048;82;21516;-76
2021/08/06 05:30:06;;;;;;;97.92;37.65;;;;;;;32.14;44.53;100125.54;1747272;80;20889;-76
2021/08/06 05:32:33;;;;;;;53.92;25.85;;;;;;;32.47;44.90;100123.33;1746931;82;20892;-77
2021/08/06 05:35:00;;;;;;;49.23;24.63;;;;;;;32.79;44.25;100133.58;1747118;82;21041;-76
2021/08/06 05:37:27;;;;;;;73.62;29.82;;;;;;;33.04;43.63;100122.23;1746899;80;20884;-76
2021/08/06 05:39:55;;;;;;;38.38;21.42;;;;;;;33.30;43.20;100120.64;1746946;80;20853;-74
2021/08/06 05:42:21;;;;;;;62.17;27.40;;;;;;;33.57;43.07;100127.48;1746812;82;20908;-74
2021/08/06 05:44:48;;;;;;;79.22;28.55;;;;;;;33.87;42.74;100122.06;1747259;82;21490;-76
2021/08/06 05:47:15;;;;;;;56.45;25.45;;;;;;;34.13;42.14;100111.40;1747013;80;21163;-75
2021/08/06 05:49:42;;;;;;;44.27;25.05;;;;;;;34.35;41.79;100100.39;1747184;80;21566;-75
2021/08/06 05:52:10;;;;;;;43.75;23.95;;;;;;;34.58;41.40;100093.73;1746883;80;21389;-75
2021/08/06 05:54:37;;;;;;;38.58;23.80;;;;;;;34.80;41.12;100099.05;1747176;80;20952;-75
2021/08/06 05:57:04;;;;;;;39.00;24.40;;;;;;;35.00;40.96;100098.31;1746978;80;20916;-74
2021/08/06 05:59:31;;;;;;;44.42;25.72;;;;;;;35.24;40.03;100098.67;1747034;80;21069;-74
2021/08/06 06:01:59;;;;;;;50.88;29.12;;;;;;;35.45;40.04;100091.37;1747854;80;21073;-73
2021/08/06 06:04:30;;;;;;;45.88;25.40;;;;;;;35.69;39.90;100084.87;1747875;82;21007;-73
2021/08/06 06:07:02;;;;;;;43.83;23.98;;;;;;;35.95;39.12;100080.21;1746175;81;20976;-74
2021/08/06 06:09:30;;;;;;;39.03;23.05;;;;;;;36.20;38.43;100081.33;1747279;80;20905;-75
2021/08/06 06:11:57;;;;;;;40.75;23.52;;;;;;;36.39;38.00;100080.19;1747200;82;21492;-76
2021/08/06 06:14:24;;;;;;;37.48;22.00;;;;;;;36.59;37.49;100084.22;1746765;82;20967;-75
2021/08/06 06:16:53;;;;;;;26.25;15.78;;;;;;;36.79;37.44;100081.17;1746879;80;20896;-76
2021/08/06 06:19:20;;;;;;;25.52;16.52;;;;;;;36.93;34.14;100084.92;1746907;82;20909;-75
2021/08/06 06:21:48;;;;;;;24.60;15.00;;;;;;;37.10;34.49;100079.95;1746885;82;20872;-76
2021/08/06 06:24:14;;;;;;;20.50;14.68;;;;;;;37.31;32.03;100073.81;1746899;82;22164;-77
2021/08/06 06:26:42;;;;;;;23.12;14.18;;;;;;;37.52;32.63;100073.11;1746882;80;20924;-77
2021/08/06 06:29:09;;;;;;;27.15;14.33;;;;;;;37.73;31.09;100072.97;1746799;80;20928;-77
2021/08/06 06:31:38;;;;;;;26.05;14.40;;;;;;;37.93;31.64;100074.18;1746862;80;20904;-79
2021/08/06 06:34:05;;;;;;;27.52;14.53;;;;;;;38.11;31.75;100077.30;1747100;82;21409;-78
2021/08/06 06:36:33;;;;;;;21.15;12.70;;;;;;;38.24;29.92;100070.33;1746803;80;22610;-78
2021/08/06 06:39:00;;;;;;;25.77;11.50;;;;;;;38.39;28.85;100074.28;1746749;82;20964;-79
2021/08/06 06:41:27;;;;;;;17.70;11.18;;;;;;;38.63;28.29;100078.42;1747138;80;21403;-80
2021/08/06 06:43:56;;;;;;;22.87;10.93;;;;;;;38.88;27.67;100075.09;1746925;80;21378;-79
2021/08/06 06:46:24;;;;;;;22.35;10.95;;;;;;;39.06;27.40;100075.69;1746894;82;20900;-79
2021/08/06 06:51:09;;;;;;;20.97;9.73;;;;;;;39.50;26.80;100076.45;1798677;79;22498;-78
2021/08/06 06:53:36;;;;;;;16.20;8.48;;;;;;;39.59;27.53;100078.20;1758266;80;20900;-77
2021/08/06 06:56:04;;;;;;;13.15;7.08;;;;;;;39.71;26.73;100068.68;1758390;81;21094;-79
2021/08/06 06:58:31;;;;;;;10.30;7.25;;;;;;;39.82;26.18;100059.72;1758322;81;20920;-79
2021/08/06 07:00:58;;;;;;;10.10;6.53;;;;;;;39.81;25.66;100064.40;1758355;81;20876;-80
2021/08/06 07:03:25;;;;;;;9.35;5.78;;;;;;;39.90;26.28;100063.18;1758746;80;20979;-79
2021/08/06 07:05:52;;;;;;;13.13;5.83;;;;;;;40.01;25.96;100065.19;1758393;81;20975;-75
2021/08/06 07:08:20;;;;;;;11.43;6.28;;;;;;;40.12;25.73;100067.44;1758356;81;22177;-76
2021/08/06 07:10:47;;;;;;;11.63;5.55;;;;;;;40.26;25.84;100068.81;1758179;81;21006;-77
2021/08/06 07:13:14;;;;;;;18.00;6.33;;;;;;;40.32;25.18;100074.50;1758259;81;20987;-75
2021/08/06 07:15:42;;;;;;;13.75;5.30;;;;;;;40.44;25.48;100082.23;1756934;81;21496;-73
2021/08/06 07:18:11;;;;;;;16.67;5.70;;;;;;;40.63;24.93;100080.77;1758466;81;20948;-75
2021/08/06 07:20:45;;;;;;;17.02;5.65;;;;;;;40.79;24.62;100079.91;1758349;80;21136;-75
2021/08/06 07:23:13;;;;;;;9.65;6.10;;;;;;;40.93;24.70;100077.94;1723963;83;21903;-77
2021/08/06 07:25:40;;;;;;;14.20;5.83;;;;;;;41.09;24.61;100085.31;1724877;81;20892;-76
2021/08/06 07:28:09;;;;;;;10.45;8.25;;;;;;;41.23;24.02;100094.13;1708130;82;20907;-74
2021/08/06 07:30:37;;;;;;;20.37;6.35;;;;;;;41.23;24.04;100092.17;1724819;83;20966;-75
2021/08/06 07:33:07;;;;;;;10.78;6.28;;;;;;;41.27;24.20;100091.81;1725132;83;22408;-74
2021/08/06 07:35:34;;;;;;;13.98;8.80;;;;;;;41.42;24.43;100090.08;1724730;83;20982;-79
2021/08/06 07:38:01;;;;;;;13.72;8.15;;;;;;;41.42;23.05;100094.74;1724842;83;21002;-76
2021/08/06 07:40:29;;;;;;;13.95;6.95;;;;;;;41.26;23.80;100092.11;1724702;82;21380;-77
2021/08/06 07:42:56;;;;;;;9.58;7.03;;;;;;;41.19;23.13;100083.72;1725182;82;20962;-75
2021/08/06 07:45:24;;;;;;;9.03;6.10;;;;;;;41.19;23.26;100087.84;1724753;83;21999;-76
2021/08/06 07:47:52;;;;;;;8.48;5.80;;;;;;;41.16;23.81;100086.29;1724743;83;21034;-71
2021/08/06 07:50:19;;;;;;;11.55;5.37;;;;;;;41.17;23.46;100082.41;1716237;83;21478;-74
2021/08/06 07:52:46;;;;;;;9.33;5.58;;;;;;;41.12;22.84;100074.24;1709586;84;20885;-74
2021/08/06 07:55:16;;;;;;;8.93;5.80;;;;;;;41.12;22.64;100071.49;1709429;84;20931;-76
2021/08/06 07:57:43;;;;;;;7.10;5.08;;;;;;;41.04;23.15;100068.90;1709324;84;21163;-75
2021/08/06 08:00:11;;;;;;;11.53;5.47;;;;;;;40.98;24.02;100061.91;1709243;84;20912;-76
2021/08/06 08:02:44;;;;;;;12.60;5.17;;;;;;;41.01;22.48;100066.78;1708805;84;20928;-74
2021/08/06 08:05:13;;;;;;;11.50;6.40;;;;;;;40.97;22.31;100066.57;1744588;80;20976;-74
2021/08/06 08:07:41;;;;;;;10.85;5.78;;;;;;;40.98;23.51;100066.84;1744602;81;21422;-74
2021/08/06 08:10:10;;;;;;;10.43;5.17;;;;;;;41.17;23.36;100072.77;1744876;82;21102;-74
2021/08/06 08:12:38;;;;;;;11.45;5.65;;;;;;;41.36;23.38;100069.86;1744505;81;20949;-75
2021/08/06 08:15:07;;;;;;;7.75;6.40;;;;;;;41.41;23.11;100067.78;1744954;82;20893;-75
2021/08/06 08:17:34;;;;;;;12.18;5.47;;;;;;;41.39;22.83;100074.73;1744522;82;20929;-74
2021/08/06 08:20:01;;;;;;;10.80;4.87;;;;;;;41.40;24.16;100073.59;1744879;81;20893;-74
2021/08/06 08:22:30;;;;;;;10.30;5.05;;;;;;;41.52;24.20;100071.67;1708807;82;21141;-74
2021/08/06 08:24:58;;;;;;;10.00;5.25;;;;;;;41.61;24.27;100072.58;1708811;84;21386;-76
2021/08/06 08:27:25;;;;;;;6.60;4.25;;;;;;;41.76;22.86;100066.68;1708832;82;20900;-74
2021/08/06 08:29:52;;;;;;;9.28;4.47;;;;;;;41.85;21.90;100068.11;1709169;84;20900;-74
2021/08/06 08:32:19;;;;;;;7.80;4.17;;;;;;;41.97;21.39;100075.21;1708817;84;20833;-74
2021/08/06 08:34:46;;;;;;;9.15;4.33;;;;;;;42.10;20.39;100076.28;1709119;84;21498;-76
2021/08/06 08:37:14;;;;;;;6.92;3.52;;;;;;;42.20;20.51;100076.02;1708732;84;21421;-77
2021/08/06 08:39:42;;;;;;;4.25;3.40;;;;;;;42.31;19.61;100068.25;1709135;84;20853;-76
2021/08/06 08:42:09;;;;;;;5.97;4.00;;;;;;;42.41;19.16;100079.03;1708827;84;20935;-77
2021/08/06 08:44:38;;;;;;;14.07;4.85;;;;;;;42.41;18.07;100064.45;1708779;84;20877;-76
2021/08/06 08:47:07;;;;;;;8.60;3.92;;;;;;;42.28;18.08;100066.72;1708818;84;21147;-75
2021/08/06 08:49:36;;;;;;;4.53;3.17;;;;;;;42.03;17.56;100067.66;1708561;83;20920;-76
2021/08/06 08:52:03;;;;;;;3.95;3.55;;;;;;;41.77;17.98;100064.73;1708781;84;21513;-75
2021/08/06 08:54:30;;;;;;;8.60;3.85;;;;;;;41.62;18.97;100052.16;1708777;84;20928;-76
2021/08/06 08:56:57;;;;;;;7.62;3.65;;;;;;;41.67;19.74;100056.19;1708973;82;20892;-74
2021/08/06 08:59:25;;;;;;;6.70;3.70;;;;;;;41.81;19.64;100055.52;1708773;82;21126;-75
2021/08/06 09:01:53;;;;;;;5.97;3.47;;;;;;;41.95;19.02;100051.86;1708447;82;20948;-73
2021/08/06 09:04:28;;;;;;;6.83;4.30;;;;;;;42.07;19.58;100053.51;1708835;84;20881;-74
2021/08/06 09:06:56;;;;;;;4.53;3.85;;;;;;;42.19;19.86;100051.52;1738282;82;20983;-74
2021/08/06 09:09:27;;;;;;;6.08;3.52;;;;;;;42.27;19.24;100042.48;1708704;83;20967;-76
2021/08/06 09:12:13;;;;;;;4.70;3.65;;;;;;;42.25;19.50;100040.61;1708857;84;21161;-77
2021/08/06 09:14:49;;;;;;;4.95;3.02;;;;;;;42.23;19.94;100034.03;1708663;84;21382;-75
2021/08/06 09:17:16;;;;;;;5.65;3.55;;;;;;;42.23;19.08;100032.65;1709113;84;20952;-74
2021/08/06 09:19:56;;;;;;;4.12;3.42;;;;;;;42.31;19.53;100031.04;1708745;84;20951;-73
2021/08/06 09:22:27;;;;;;;3.52;2.80;;;;;;;42.37;19.65;100033.91;1708506;82;20979;-75
2021/08/06 09:25:11;;;;;;;6.12;3.67;;;;;;;42.43;19.76;100020.83;1708751;82;21168;-75
2021/08/06 09:27:43;;;;;;;8.10;3.12;;;;;;;42.49;19.60;100019.55;1708951;84;21078;-74
2021/08/06 09:30:16;;;;;;;7.17;3.55;;;;;;;42.58;20.46;100018.16;1708636;82;21378;-76
2021/08/06 09:32:47;;;;;;;6.42;3.98;;;;;;;42.59;19.65;100005.44;1709138;82;20940;-77
2021/08/06 09:35:16;;;;;;;4.65;3.60;;;;;;;42.64;19.60;99996.19;1708665;83;20924;-76
2021/08/06 09:37:42;;;;;;;8.65;3.83;;;;;;;42.68;19.80;99990.86;1709009;84;21191;-76
2021/08/06 09:40:17;;;;;;;8.30;3.65;;;;;;;42.60;19.79;99986.94;1708719;84;21310;-76
2021/08/06 09:43:00;;;;;;;8.68;4.20;;;;;;;42.40;20.02;99987.83;1744830;81;21372;-75
2021/08/06 09:45:34;;;;;;;8.75;4.53;;;;;;;42.26;20.48;99973.89;1744554;81;20917;-77
2021/08/06 09:48:01;;;;;;;7.15;4.03;;;;;;;42.26;20.67;99984.91;1745023;82;20928;-72
2021/08/06 09:50:37;;;;;;;8.05;4.40;;;;;;;42.23;21.15;99977.53;1748918;81;21784;-72
2021/08/06 09:53:05;;;;;;;9.90;4.40;;;;;;;42.20;20.56;99967.70;1757829;81;20872;-72
2021/08/06 09:55:37;;;;;;;4.95;4.47;;;;;;;42.05;21.87;99964.84;1757838;80;20896;-73
2021/08/06 09:58:20;;;;;;;5.20;4.12;;;;;;;41.98;21.64;99958.41;1721830;83;21019;-72
2021/08/06 10:00:50;;;;;;;7.37;4.30;;;;;;;41.91;22.26;99950.32;1721898;83;20931;-71
2021/08/06 10:03:34;;;;;;;6.62;4.40;;;;;;;41.82;22.09;99949.74;1722112;83;21790;-71
2021/08/06 10:06:18;;;;;;;5.40;4.30;;;;;;;41.74;22.83;99942.82;1721948;83;21362;-71
2021/08/06 10:08:46;;;;;;;8.83;4.53;;;;;;;41.67;21.21;99936.39;1721770;83;20892;-71
2021/08/06 10:11:14;;;;;;;6.08;4.15;;;;;;;41.54;21.60;99925.69;1721788;82;20939;-71
2021/08/06 10:13:43;;;;;;;7.00;4.30;;;;;;;41.53;22.42;99922.67;1721765;83;21053;-74
2021/08/06 10:16:12;;;;;;;14.80;4.78;;;;;;;41.55;22.02;99918.23;1721924;83;21241;-72
2021/08/06 10:18:41;;;;;;;8.08;4.97;;;;;;;41.56;23.08;99911.08;1721802;83;20852;-72
2021/08/06 10:21:09;;;;;;;6.30;4.60;;;;;;;41.63;23.36;99902.36;1721969;83;20943;-72
2021/08/06 10:23:37;;;;;;;6.83;4.40;;;;;;;41.74;22.90;99898.76;1721912;83;20943;-74
2021/08/06 10:26:07;;;;;;;9.48;4.80;;;;;;;41.63;23.30;99889.39;1721966;83;20975;-73
2021/08/06 10:28:33;;;;;;;11.08;5.67;;;;;;;41.50;23.17;99890.28;1721963;82;21080;-74
2021/08/06 10:31:23;;;;;;;11.03;5.12;;;;;;;41.45;23.90;99879.99;1721957;82;21372;-74
2021/08/06 10:34:03;;;;;;;10.13;4.83;;;;;;;41.54;24.17;99873.95;1722066;83;20844;-72
2021/08/06 10:36:43;;;;;;;9.28;5.62;;;;;;;41.62;24.36;99872.64;1720835;83;21406;-72
2021/08/06 10:39:38;;;;;;;12.33;5.85;;;;;;;41.63;24.59;99867.94;1721833;83;21049;-77
2021/08/06 10:42:05;;;;;;;8.73;6.30;;;;;;;41.55;25.43;99879.69;1722020;83;21480;-76
2021/08/06 10:44:58;;;;;;;14.15;5.87;;;;;;;41.57;25.62;99873.34;1721670;83;20953;-75
2021/08/06 10:47:21;;;;;;;10.78;6.25;;;;;;;41.58;26.06;99877.16;1720574;83;20880;-74
2021/08/06 10:50:14;;;;;;;9.95;6.17;;;;;;;41.47;25.04;99862.56;1721716;83;21003;-72
2021/08/06 10:52:42;;;;;;;15.98;6.65;;;;;;;41.28;25.51;99857.31;1721712;83;21440;-75
2021/08/06 10:55:18;;;;;;;20.27;6.58;;;;;;;41.09;25.72;99859.71;1721700;83;21471;-77
2021/08/06 10:57:46;;;;;;;13.43;6.67;;;;;;;40.99;26.10;99843.45;1721723;83;21445;-79
2021/08/06 11:00:32;;;;;;;8.58;5.80;;;;;;;40.98;26.48;99837.15;1721705;82;20986;-77
2021/08/06 11:02:59;;;;;;;10.28;5.62;;;;;;;40.93;25.74;99839.20;1721678;83;20920;-78
2021/08/06 11:05:33;;;;;;;14.53;5.97;;;;;;;40.76;25.80;99830.30;1721910;82;21452;-79
2021/08/06 11:08:01;;;;;;;12.85;7.55;;;;;;;40.66;25.80;99842.89;1722080;82;21507;-78
2021/08/06 11:10:50;;;;;;;11.40;5.35;;;;;;;40.50;26.38;99828.70;1721711;83;21393;-78
2021/08/06 11:13:38;;;;;;;10.93;6.15;;;;;;;40.51;26.63;99823.45;1721735;83;20840;-75
2021/08/06 11:16:09;;;;;;;12.68;6.12;;;;;;;40.61;25.84;99814.95;1721944;82;21022;-75
2021/08/06 11:18:43;;;;;;;15.55;5.87;;;;;;;40.58;25.27;99818.34;1721065;82;20975;-73
2021/08/06 11:21:10;;;;;;;9.85;5.78;;;;;;;40.34;25.69;99804.34;1722004;83;21121;-74
2021/08/06 11:23:37;;;;;;;12.93;6.70;;;;;;;40.24;25.99;99805.91;1721924;83;21365;-76
2021/08/06 11:26:08;;;;;;;15.68;6.42;;;;;;;40.15;26.33;99801.70;1722017;82;20943;-75
2021/08/06 11:28:36;;;;;;;10.32;5.65;;;;;;;39.94;26.77;99787.64;1721859;83;20947;-75